Time;durP1;ratioP1;P1;durP2;ratioP2;P2;SDS_P1;SDS_P2;PMS_P1;PMS_P2;Temp;Humidity;BMP_temperature;BMP_pressure;BME280_temperature;BME280_humidity;BME280_pressure;Samples;Min_cycle;Max_cycle;Signal;HPM_P1;HPM_P2
2023/09/22 00:00:54;;;;;;;;;;;;;;;22.11;54.64;99646.63;3157197;28;19928;-72
2023/09/22 00:02:26;;;;;;;;;;;;;;;22.10;54.62;99650.28;3157583;28;20303;-70
2023/09/22 00:03:57;;;;;;;;;;;;;;;22.08;54.53;99646.91;3156964;28;20006;-71
2023/09/22 00:05:29;;;;;;;;;;;;;;;22.06;54.83;99656.81;3157325;28;19928;-72
2023/09/22 00:06:59;;;;;;;;;;;;;;;22.02;54.62;99658.94;3156913;28;19977;-71
2023/09/22 00:08:31;;;;;;;;;;;;;;;22.00;54.69;99658.25;3157578;28;20427;-73
2023/09/22 00:10:01;;;;;;;;;;;;;;;22.00;54.69;99658.25;3157398;28;20405;-74
2023/09/22 00:11:33;;;;;;;;;;;;;;;21.98;55.08;99654.94;3153608;28;19934;-71
2023/09/22 00:13:04;;;;;;;;;;;;;;;21.96;54.91;99665.66;3157658;28;19932;-73
2023/09/22 00:14:35;;;;;;;;;;;;;;;21.96;54.83;99668.31;3157608;28;19924;-74
2023/09/22 00:16:09;;;;;;;;;;;;;;;21.96;54.96;99673.63;3157308;28;20538;-72
2023/09/22 00:17:40;;;;;;;;;;;;;;;21.93;55.16;99668.59;3150743;28;19955;-72
2023/09/22 00:19:12;;;;;;;;;;;;;;;21.89;54.97;99659.28;3150084;28;20317;-71
2023/09/22 00:20:42;;;;;;;;;;;;;;;21.86;55.31;99651.63;3157488;28;19928;-73
2023/09/22 00:22:14;;;;;;;;;;;;;;;21.82;55.45;99644.91;3156850;28;19928;-73
2023/09/22 00:23:44;;;;;;;;;;;;;;;21.75;55.96;99649.97;3157748;28;19931;-73
2023/09/22 00:25:16;;;;;;;;;;;;;;;21.72;56.17;99641.47;3156801;28;19924;-73
2023/09/22 00:26:46;;;;;;;;;;;;;;;21.69;56.13;99644.44;3157143;28;19997;-75
2023/09/22 00:28:18;;;;;;;;;;;;;;;21.64;56.39;99639.53;3157745;28;20397;-74
2023/09/22 00:29:48;;;;;;;;;;;;;;;21.58;56.41;99651.53;3157273;28;19924;-74
2023/09/22 00:31:22;;;;;;;;;;;;;;;21.57;56.51;99651.72;3157072;28;20461;-70
2023/09/22 00:32:52;;;;;;;;;;;;;;;21.53;56.49;99656.47;3157499;28;20023;-71
2023/09/22 00:34:24;;;;;;;;;;;;;;;21.51;56.54;99644.34;3152245;28;19924;-72
2023/09/22 00:36:00;;;;;;;;;;;;;;;21.50;56.44;99663.84;3156969;28;19985;-71
2023/09/22 00:37:33;;;;;;;;;;;;;;;21.50;56.54;99664.69;3157377;28;19943;-72
2023/09/22 00:39:05;;;;;;;;;;;;;;;21.48;56.61;99664.00;3157537;28;19946;-72
2023/09/22 00:40:35;;;;;;;;;;;;;;;21.44;56.85;99659.94;3156930;28;20006;-71
2023/09/22 00:42:09;;;;;;;;;;;;;;;21.42;56.86;99661.09;3157209;28;19935;-71
2023/09/22 00:43:40;;;;;;;;;;;;;;;21.41;57.10;99668.19;3157354;28;19931;-72
2023/09/22 00:45:14;;;;;;;;;;;;;;;21.40;56.70;99663.88;3156979;28;20332;-72
2023/09/22 00:46:46;;;;;;;;;;;;;;;21.41;56.76;99656.75;3157292;28;19928;-72
2023/09/22 00:48:20;;;;;;;;;;;;;;;21.39;56.95;99656.06;3157313;28;19927;-71
2023/09/22 00:49:53;;;;;;;;;;;;;;;21.39;56.88;99667.50;3157294;28;20023;-73
2023/09/22 00:51:25;;;;;;;;;;;;;;;21.39;56.98;99656.06;3156928;28;20362;-72
2023/09/22 00:52:55;;;;;;;;;;;;;;;21.33;57.10;99647.69;3157055;28;20128;-72
2023/09/22 00:54:27;;;;;;;;;;;;;;;21.29;57.46;99646.28;3157271;28;20401;-72
2023/09/22 00:55:57;;;;;;;;;;;;;;;21.26;57.66;99646.56;3158860;28;19928;-73
2023/09/22 00:57:29;;;;;;;;;;;;;;;21.22;57.82;99645.19;3159547;28;19934;-74
2023/09/22 00:59:00;;;;;;;;;;;;;;;21.21;57.94;99642.66;3159441;28;19935;-72
2023/09/22 01:00:32;;;;;;;;;;;;;;;21.18;57.95;99643.81;3159722;28;20041;-72
2023/09/22 01:02:04;;;;;;;;;;;;;;;21.14;58.18;99640.56;3159427;28;19928;-72
2023/09/22 01:03:36;;;;;;;;;;;;;;;21.12;58.08;99652.31;3159231;28;19931;-71
2023/09/22 01:05:08;;;;;;;;;;;;;;;21.10;58.02;99667.50;3159114;28;19950;-72
2023/09/22 01:06:39;;;;;;;;;;;;;;;21.12;58.02;99668.19;3159660;28;19964;-73
2023/09/22 01:08:10;;;;;;;;;;;;;;;21.12;57.82;99676.13;3159783;28;20062;-74
2023/09/22 01:09:42;;;;;;;;;;;;;;;21.13;57.81;99664.56;3159770;28;20015;-74
2023/09/22 01:11:13;;;;;;;;;;;;;;;21.13;57.97;99670.69;3159665;28;20361;-73
2023/09/22 01:12:45;;;;;;;;;;;;;;;21.13;57.75;99665.41;3159557;28;19924;-73
2023/09/22 01:14:15;;;;;;;;;;;;;;;21.12;57.82;99669.03;3159597;28;19928;-74
2023/09/22 01:15:47;;;;;;;;;;;;;;;21.13;57.74;99667.22;3159700;28;20011;-74
2023/09/22 01:17:21;;;;;;;;;;;;;;;21.13;57.63;99662.75;3158962;28;19993;-74
2023/09/22 01:18:52;;;;;;;;;;;;;;;21.14;57.62;99652.97;3159230;28;20401;-74
2023/09/22 01:20:23;;;;;;;;;;;;;;;21.16;57.67;99655.50;3159566;28;19935;-74
2023/09/22 01:21:55;;;;;;;;;;;;;;;21.14;57.75;99656.47;3154818;28;20416;-73
2023/09/22 01:23:27;;;;;;;;;;;;;;;21.14;57.72;99660.94;3151362;28;19931;-74
2023/09/22 01:24:58;;;;;;;;;;;;;;;21.14;57.90;99660.94;3159842;28;20367;-74
2023/09/22 01:26:29;;;;;;;;;;;;;;;21.13;57.73;99673.34;3159316;28;20014;-73
2023/09/22 01:28:00;;;;;;;;;;;;;;;21.13;57.84;99676.00;3159237;28;19928;-74
2023/09/22 01:29:31;;;;;;;;;;;;;;;21.14;57.72;99672.34;3158859;28;20007;-74
2023/09/22 01:31:02;;;;;;;;;;;;;;;21.10;57.87;99676.25;3158978;28;20386;-74
2023/09/22 01:32:36;;;;;;;;;;;;;;;21.07;57.97;99671.25;3159302;28;19928;-74
2023/09/22 01:34:08;;;;;;;;;;;;;;;21.03;58.16;99677.81;3158615;28;20453;-74
2023/09/22 01:35:39;;;;;;;;;;;;;;;21.03;57.95;99675.16;3159086;28;20018;-74
2023/09/22 01:37:12;;;;;;;;;;;;;;;21.04;58.00;99662.75;3158107;28;20448;-74
2023/09/22 01:38:44;;;;;;;;;;;;;;;21.06;57.94;99666.09;3159284;28;19962;-74
2023/09/22 01:40:16;;;;;;;;;;;;;;;21.04;58.15;99670.69;3158929;28;19985;-74
2023/09/22 01:41:48;;;;;;;;;;;;;;;21.01;58.18;99666.50;3159255;28;20401;-74
2023/09/22 01:43:19;;;;;;;;;;;;;;;21.01;58.44;99679.75;3159159;28;20381;-74
2023/09/22 01:44:50;;;;;;;;;;;;;;;21.02;58.31;99684.06;3159291;28;20018;-75
2023/09/22 01:46:22;;;;;;;;;;;;;;;21.01;58.42;99692.16;3158861;28;19924;-74
2023/09/22 01:47:52;;;;;;;;;;;;;;;20.99;58.33;99688.81;3158678;28;19935;-74
2023/09/22 01:49:24;;;;;;;;;;;;;;;20.99;58.47;99692.28;3159051;28;19934;-75
2023/09/22 01:50:59;;;;;;;;;;;;;;;20.96;58.73;99689.91;3159187;28;19928;-74
2023/09/22 01:52:32;;;;;;;;;;;;;;;20.93;58.68;99692.00;3158833;28;19931;-75
2023/09/22 01:54:04;;;;;;;;;;;;;;;20.90;58.85;99693.13;3158868;28;20251;-75
2023/09/22 01:55:35;;;;;;;;;;;;;;;20.88;59.14;99697.69;3158759;28;19950;-74
2023/09/22 01:57:06;;;;;;;;;;;;;;;20.85;59.22;99692.69;3158780;28;19928;-74
2023/09/22 01:58:37;;;;;;;;;;;;;;;20.85;59.17;99693.53;3158239;28;19935;-74
2023/09/22 02:00:10;;;;;;;;;;;;;;;20.84;59.10;99698.97;3158481;28;20384;-74
2023/09/22 02:01:42;;;;;;;;;;;;;;;20.81;59.38;99699.25;3159107;28;19925;-72
2023/09/22 02:03:13;;;;;;;;;;;;;;;20.80;59.43;99705.50;3158589;28;19932;-72
2023/09/22 02:04:44;;;;;;;;;;;;;;;20.80;59.46;99701.06;3158493;28;19924;-73
2023/09/22 02:06:15;;;;;;;;;;;;;;;20.84;59.22;99704.25;3158841;28;19932;-72
2023/09/22 02:07:48;;;;;;;;;;;;;;;20.84;59.13;99698.97;3158292;28;19924;-72
2023/09/22 02:09:19;;;;;;;;;;;;;;;20.86;59.21;99695.22;3157396;28;19978;-72
2023/09/22 02:10:51;;;;;;;;;;;;;;;20.88;59.17;99700.34;3158884;28;19939;-72
2023/09/22 02:12:21;;;;;;;;;;;;;;;20.86;59.13;99702.31;3158729;28;19924;-71
2023/09/22 02:13:53;;;;;;;;;;;;;;;20.81;59.83;99708.00;3158462;28;19952;-72
2023/09/22 02:15:24;;;;;;;;;;;;;;;20.76;60.00;99709.38;3158198;28;20419;-72
2023/09/22 02:16:55;;;;;;;;;;;;;;;20.72;60.33;99711.47;3158699;28;19977;-72
2023/09/22 02:18:26;;;;;;;;;;;;;;;20.70;60.41;99710.78;3151655;28;19928;-73
2023/09/22 02:19:57;;;;;;;;;;;;;;;20.71;60.16;99714.28;3157515;28;19997;-73
2023/09/22 02:21:29;;;;;;;;;;;;;;;20.66;60.33;99715.50;3157158;28;19928;-72
2023/09/22 02:23:02;;;;;;;;;;;;;;;20.65;60.42;99708.56;3155767;28;19991;-73
2023/09/22 02:24:32;;;;;;;;;;;;;;;20.65;60.46;99707.72;3158670;28;20337;-73
2023/09/22 02:26:08;;;;;;;;;;;;;;;20.65;60.35;99700.63;3158267;28;19924;-72
2023/09/22 02:27:38;;;;;;;;;;;;;;;20.65;60.38;99700.63;3158291;28;19924;-72
2023/09/22 02:29:10;;;;;;;;;;;;;;;20.65;60.39;99697.13;3158116;28;19924;-71
2023/09/22 02:30:40;;;;;;;;;;;;;;;20.64;60.35;99701.56;3158438;28;19977;-72
2023/09/22 02:32:12;;;;;;;;;;;;;;;20.63;60.52;99697.25;3158392;28;19924;-70
2023/09/22 02:33:42;;;;;;;;;;;;;;;20.62;60.51;99695.59;3158389;28;19928;-73
2023/09/22 02:35:14;;;;;;;;;;;;;;;20.62;60.13;99692.13;3158397;28;19977;-72
2023/09/22 02:36:44;;;;;;;;;;;;;;;20.62;60.35;99689.47;3158099;28;19924;-71
2023/09/22 02:38:17;;;;;;;;;;;;;;;20.64;60.21;99684.84;3157856;28;19925;-72
2023/09/22 02:39:48;;;;;;;;;;;;;;;20.66;60.06;99672.34;3157931;28;20325;-72
2023/09/22 02:41:20;;;;;;;;;;;;;;;20.65;59.98;99673.31;3158244;28;19924;-72
2023/09/22 02:42:50;;;;;;;;;;;;;;;20.59;60.48;99676.50;3158530;28;19931;-75
2023/09/22 02:44:22;;;;;;;;;;;;;;;20.51;60.73;99671.84;3158330;28;20321;-73
2023/09/22 02:45:53;;;;;;;;;;;;;;;20.45;60.79;99670.59;3157745;28;19928;-73
2023/09/22 02:47:25;;;;;;;;;;;;;;;20.43;60.74;99674.34;3158253;28;20366;-74
2023/09/22 02:48:57;;;;;;;;;;;;;;;20.45;60.73;99667.94;3158018;28;19942;-74
2023/09/22 02:50:28;;;;;;;;;;;;;;;20.47;60.55;99673.13;3158411;28;19928;-74
2023/09/22 02:51:59;;;;;;;;;;;;;;;20.46;60.46;99671.41;3158176;28;19924;-74
2023/09/22 02:53:32;;;;;;;;;;;;;;;20.44;60.56;99668.94;3157722;28;20045;-74
2023/09/22 02:55:03;;;;;;;;;;;;;;;20.43;60.29;99663.75;3151128;28;19976;-73
2023/09/22 02:56:35;;;;;;;;;;;;;;;20.43;60.29;99671.69;3145609;28;19925;-73
2023/09/22 02:58:08;;;;;;;;;;;;;;;20.43;60.10;99666.41;3149977;28;20409;-74
2023/09/22 02:59:39;;;;;;;;;;;;;;;20.43;60.21;99671.69;3158134;28;20426;-74
2023/09/22 03:01:10;;;;;;;;;;;;;;;20.40;60.29;99671.97;3157572;28;19924;-73
2023/09/22 03:02:41;;;;;;;;;;;;;;;20.35;60.35;99675.03;3157597;28;19924;-72
2023/09/22 03:04:13;;;;;;;;;;;;;;;20.33;60.57;99676.13;3158312;28;20428;-72
2023/09/22 03:05:44;;;;;;;;;;;;;;;20.29;60.42;99667.63;3157957;28;19963;-70
2023/09/22 03:07:16;;;;;;;;;;;;;;;20.28;60.81;99673.03;3157886;28;20298;-72
2023/09/22 03:08:49;;;;;;;;;;;;;;;20.25;60.78;99670.66;3158186;28;20386;-74
2023/09/22 03:10:19;;;;;;;;;;;;;;;20.24;60.80;99664.56;3157818;28;19980;-73
2023/09/22 03:11:51;;;;;;;;;;;;;;;20.23;61.03;99660.22;3157373;28;20348;-73
2023/09/22 03:13:21;;;;;;;;;;;;;;;20.21;61.38;99667.47;3157767;28;19931;-73
2023/09/22 03:14:53;;;;;;;;;;;;;;;20.14;61.99;99661.88;3157701;28;20614;-73
2023/09/22 03:16:23;;;;;;;;;;;;;;;20.10;62.21;99665.75;3157818;28;19924;-73
2023/09/22 03:17:56;;;;;;;;;;;;;;;20.10;62.00;99663.09;3157806;28;19945;-73
2023/09/22 03:19:27;;;;;;;;;;;;;;;20.09;61.64;99669.38;3156798;28;20014;-73
2023/09/22 03:20:59;;;;;;;;;;;;;;;20.11;61.63;99667.41;3157595;28;19928;-74
2023/09/22 03:22:30;;;;;;;;;;;;;;;20.11;61.70;99677.16;3157568;28;19938;-74
2023/09/22 03:24:03;;;;;;;;;;;;;;;20.10;61.77;99670.22;3157758;28;19924;-73
2023/09/22 03:25:34;;;;;;;;;;;;;;;20.08;61.46;99665.03;3157458;28;19936;-73
2023/09/22 03:27:06;;;;;;;;;;;;;;;20.06;61.83;99652.94;3158016;28;19924;-72
2023/09/22 03:28:37;;;;;;;;;;;;;;;20.04;61.73;99655.72;3157307;28;20018;-72
2023/09/22 03:30:10;;;;;;;;;;;;;;;20.06;61.59;99659.06;3157494;28;19928;-74
2023/09/22 03:31:41;;;;;;;;;;;;;;;20.05;61.71;99660.03;3157680;28;19993;-74
2023/09/22 03:33:13;;;;;;;;;;;;;;;20.00;62.44;99664.88;3157751;28;20476;-74
2023/09/22 03:34:44;;;;;;;;;;;;;;;19.93;63.54;99667.19;3157571;28;19935;-74
2023/09/22 03:36:15;;;;;;;;;;;;;;;19.85;64.25;99667.06;3157863;28;20420;-74
2023/09/22 03:37:48;;;;;;;;;;;;;;;19.81;64.57;99665.63;3157420;28;19928;-72
2023/09/22 03:39:21;;;;;;;;;;;;;;;19.78;64.73;99663.25;3157662;28;19968;-71
2023/09/22 03:40:56;;;;;;;;;;;;;;;19.76;64.43;99671.31;3157112;28;20666;-71
2023/09/22 03:42:26;;;;;;;;;;;;;;;19.74;64.47;99667.97;3157786;28;20439;-71
2023/09/22 03:43:58;;;;;;;;;;;;;;;19.75;64.30;99669.63;3157428;28;19928;-72
2023/09/22 03:45:29;;;;;;;;;;;;;;;19.75;64.38;99666.97;3157216;28;20366;-72
2023/09/22 03:47:01;;;;;;;;;;;;;;;19.75;64.23;99666.97;3157546;28;20512;-71
2023/09/22 03:48:32;;;;;;;;;;;;;;;19.75;64.09;99669.63;3157630;28;19927;-70
2023/09/22 03:50:05;;;;;;;;;;;;;;;19.77;64.05;99672.16;3157316;28;20022;-74
2023/09/22 03:51:36;;;;;;;;;;;;;;;19.80;63.74;99674.53;3153381;28;20014;-73
2023/09/22 03:53:07;;;;;;;;;;;;;;;19.82;63.54;99677.03;3151133;28;19924;-74
2023/09/22 03:54:40;;;;;;;;;;;;;;;19.84;63.49;99680.38;3157593;28;20004;-75
2023/09/22 03:56:11;;;;;;;;;;;;;;;19.87;63.35;99680.13;3157861;28;20326;-74
2023/09/22 03:57:42;;;;;;;;;;;;;;;19.88;63.09;99680.00;3157413;28;20446;-74
2023/09/22 03:59:13;;;;;;;;;;;;;;;19.88;62.98;99690.56;3157427;28;19950;-74
2023/09/22 04:00:45;;;;;;;;;;;;;;;19.88;63.29;99693.22;3157659;28;19924;-76
2023/09/22 04:02:16;;;;;;;;;;;;;;;19.86;63.28;99695.13;3157790;28;20012;-75
2023/09/22 04:03:47;;;;;;;;;;;;;;;19.87;63.42;99695.97;3157273;28;19931;-76
2023/09/22 04:05:18;;;;;;;;;;;;;;;19.84;63.43;99693.59;3157189;28;19927;-76
2023/09/22 04:06:50;;;;;;;;;;;;;;;19.82;63.28;99692.88;3157422;28;19951;-76
2023/09/22 04:08:22;;;;;;;;;;;;;;;19.80;63.33;99698.31;3157608;28;19924;-76
2023/09/22 04:09:54;;;;;;;;;;;;;;;19.78;63.62;99693.13;3156942;28;20413;-76
2023/09/22 04:11:25;;;;;;;;;;;;;;;19.76;63.48;99694.25;3156091;28;20019;-76
2023/09/22 04:12:56;;;;;;;;;;;;;;;19.75;63.71;99697.84;3157144;28;19935;-73
2023/09/22 04:14:27;;;;;;;;;;;;;;;19.76;63.61;99695.09;3157559;28;19928;-76
2023/09/22 04:15:58;;;;;;;;;;;;;;;19.78;63.30;99694.94;3156898;28;20001;-76
2023/09/22 04:17:30;;;;;;;;;;;;;;;19.80;63.48;99697.47;3157303;28;19931;-75
2023/09/22 04:19:03;;;;;;;;;;;;;;;19.80;63.44;99697.47;3157391;28;20409;-75
2023/09/22 04:20:37;;;;;;;;;;;;;;;19.73;63.96;99705.94;3157673;28;19924;-75
2023/09/22 04:22:11;;;;;;;;;;;;;;;19.71;63.81;99699.91;3157009;28;20354;-75
2023/09/22 04:23:47;;;;;;;;;;;;;;;19.72;63.84;99698.13;3156656;28;20000;-73
2023/09/22 04:25:29;;;;;;;;;;;;;;;19.73;63.67;99705.94;3157419;28;20435;-75
2023/09/22 04:27:08;;;;;;;;;;;;;;;19.73;63.81;99699.81;3157111;28;19924;-75
2023/09/22 04:28:39;;;;;;;;;;;;;;;19.75;63.49;99703.97;3157407;28;19932;-74
2023/09/22 04:30:15;;;;;;;;;;;;;;;19.78;63.61;99708.16;3157473;28;20456;-74
2023/09/22 04:31:48;;;;;;;;;;;;;;;19.82;63.39;99698.16;3160188;28;19924;-70
2023/09/22 04:33:19;;;;;;;;;;;;;;;19.85;63.31;99697.94;3159436;28;20341;-69
2023/09/22 04:34:53;;;;;;;;;;;;;;;19.87;63.02;99698.63;3159534;28;19924;-68
2023/09/22 04:36:24;;;;;;;;;;;;;;;19.90;62.97;99707.09;3159870;28;19985;-70
2023/09/22 04:37:55;;;;;;;;;;;;;;;19.91;62.99;99705.31;3159131;28;20364;-70
2023/09/22 04:39:27;;;;;;;;;;;;;;;19.93;63.07;99712.13;3159373;28;19940;-69
2023/09/22 04:41:01;;;;;;;;;;;;;;;19.95;62.99;99710.19;3159202;28;20014;-73
2023/09/22 04:42:32;;;;;;;;;;;;;;;19.97;62.79;99712.72;3158750;28;19986;-71
2023/09/22 04:44:05;;;;;;;;;;;;;;;19.98;62.77;99715.22;3159639;28;19924;-74
2023/09/22 04:45:38;;;;;;;;;;;;;;;20.00;62.75;99712.47;3155951;28;19924;-74
2023/09/22 04:47:08;;;;;;;;;;;;;;;20.03;62.65;99714.00;3159724;28;19982;-72
2023/09/22 04:48:40;;;;;;;;;;;;;;;20.04;62.60;99715.69;3155621;28;19924;-73
2023/09/22 04:50:15;;;;;;;;;;;;;;;20.05;62.69;99714.69;3150240;28;19924;-76
2023/09/22 04:51:46;;;;;;;;;;;;;;;20.07;62.44;99718.06;3159390;28;19924;-70
2023/09/22 04:53:17;;;;;;;;;;;;;;;20.08;62.56;99717.91;3159501;28;19924;-69
2023/09/22 04:54:48;;;;;;;;;;;;;;;20.09;62.55;99713.47;3159844;28;20037;-69
2023/09/22 04:56:22;;;;;;;;;;;;;;;20.09;62.78;99716.13;3160039;28;19925;-69
2023/09/22 04:57:53;;;;;;;;;;;;;;;20.08;62.79;99720.56;3159214;28;19928;-73
2023/09/22 04:59:24;;;;;;;;;;;;;;;20.11;62.52;99722.09;3159208;28;20069;-72
2023/09/22 05:00:55;;;;;;;;;;;;;;;20.14;62.44;99725.34;3159478;28;20260;-72
2023/09/22 05:02:27;;;;;;;;;;;;;;;20.17;62.46;99718.91;3154530;28;20428;-64
2023/09/22 05:03:58;;;;;;;;;;;;;;;20.20;62.44;99716.00;3153994;28;19928;-68
2023/09/22 05:05:30;;;;;;;;;;;;;;;20.23;62.45;99723.69;3159440;28;19975;-69
2023/09/22 05:07:02;;;;;;;;;;;;;;;20.27;62.25;99713.69;3156145;28;19939;-71
2023/09/22 05:08:33;;;;;;;;;;;;;;;20.29;62.39;99717.03;3159515;28;19928;-68
2023/09/22 05:10:05;;;;;;;;;;;;;;;20.34;62.24;99725.41;3159363;28;20325;-70
2023/09/22 05:11:38;;;;;;;;;;;;;;;20.38;62.20;99722.38;3159116;28;19932;-71
2023/09/22 05:13:09;;;;;;;;;;;;;;;20.41;61.94;99706.22;3159662;28;20368;-67
2023/09/22 05:14:40;;;;;;;;;;;;;;;20.44;61.98;99705.97;3159223;28;19932;-67
2023/09/22 05:16:13;;;;;;;;;;;;;;;20.48;61.90;99708.34;3159087;28;19924;-71
2023/09/22 05:17:43;;;;;;;;;;;;;;;20.49;61.58;99707.34;3158731;28;19979;-68
2023/09/22 05:19:15;;;;;;;;;;;;;;;20.47;61.65;99712.78;3159337;28;19964;-67
2023/09/22 05:20:45;;;;;;;;;;;;;;;20.48;61.67;99711.81;3159515;28;19981;-64
2023/09/22 05:22:18;;;;;;;;;;;;;;;20.52;61.60;99713.22;3158795;28;20010;-66
2023/09/22 05:23:48;;;;;;;;;;;;;;;20.51;61.75;99713.34;3159388;28;20320;-66
2023/09/22 05:25:20;;;;;;;;;;;;;;;20.49;61.95;99717.94;3159143;28;19956;-74
2023/09/22 05:26:52;;;;;;;;;;;;;;;20.50;62.22;99720.47;3158816;28;19974;-71
2023/09/22 05:28:24;;;;;;;;;;;;;;;20.52;62.06;99721.16;3159339;28;20007;-73
2023/09/22 05:29:54;;;;;;;;;;;;;;;20.45;63.00;99715.56;3159616;28;20322;-71
2023/09/22 05:31:26;;;;;;;;;;;;;;;20.35;63.81;99722.63;3158300;28;19935;-66
2023/09/22 05:32:57;;;;;;;;;;;;;;;20.31;63.99;99725.66;3153750;28;19989;-66
2023/09/22 05:34:31;;;;;;;;;;;;;;;20.28;63.95;99725.94;3158911;28;19927;-68
2023/09/22 05:36:03;;;;;;;;;;;;;;;20.22;64.17;99722.84;3158469;28;20413;-68
2023/09/22 05:37:34;;;;;;;;;;;;;;;20.19;64.43;99725.75;3157868;28;19924;-73
2023/09/22 05:39:06;;;;;;;;;;;;;;;20.22;64.30;99725.50;3158314;28;19924;-73
2023/09/22 05:40:36;;;;;;;;;;;;;;;20.28;63.93;99731.22;3159056;28;19928;-72
2023/09/22 05:42:10;;;;;;;;;;;;;;;20.34;63.94;99735.97;3158398;28;20018;-71
2023/09/22 05:43:42;;;;;;;;;;;;;;;20.41;63.59;99737.13;3149012;28;19924;-73
2023/09/22 05:45:14;;;;;;;;;;;;;;;20.50;63.27;99735.47;3154491;28;19932;-68
2023/09/22 05:46:45;;;;;;;;;;;;;;;20.58;63.03;99739.16;3155026;28;19924;-68
2023/09/22 05:48:16;;;;;;;;;;;;;;;20.67;62.88;99740.16;3160322;28;19924;-68
2023/09/22 05:49:47;;;;;;;;;;;;;;;20.78;62.40;99741.84;3158889;28;20013;-67
2023/09/22 05:51:19;;;;;;;;;;;;;;;20.85;62.16;99737.69;3158989;28;19934;-64
2023/09/22 05:52:49;;;;;;;;;;;;;;;20.92;62.20;99743.28;3158388;28;19928;-67
2023/09/22 05:54:21;;;;;;;;;;;;;;;20.98;62.06;99750.69;3159000;28;19981;-67
2023/09/22 05:56:02;;;;;;;;;;;;;;;21.01;61.68;99745.94;3158856;28;19975;-76
2023/09/22 05:57:35;;;;;;;;;;;;;;;21.01;61.58;99748.59;3158329;28;19927;-76
2023/09/22 05:59:06;;;;;;;;;;;;;;;21.05;61.10;99747.31;3148745;28;20365;-71
2023/09/22 06:00:39;;;;;;;;;;;;;;;21.07;61.22;99741.91;3158042;28;20341;-71
2023/09/22 06:02:10;;;;;;;;;;;;;;;21.14;60.87;99754.44;3158687;28;20005;-66
2023/09/22 06:03:42;;;;;;;;;;;;;;;21.22;60.63;99753.75;3158393;28;19931;-65
2023/09/22 06:05:14;;;;;;;;;;;;;;;21.33;60.35;99752.81;3158600;28;20328;-72
2023/09/22 06:06:46;;;;;;;;;;;;;;;21.44;60.09;99749.19;3158517;28;20050;-72
2023/09/22 06:08:16;;;;;;;;;;;;;;;21.52;59.96;99758.09;3158810;28;19969;-72
2023/09/22 06:09:48;;;;;;;;;;;;;;;21.65;59.68;99757.84;3154246;28;19959;-68
2023/09/22 06:11:19;;;;;;;;;;;;;;;21.76;59.67;99756.81;3158334;28;20401;-74
2023/09/22 06:12:52;;;;;;;;;;;;;;;21.80;59.20;99752.94;3158139;28;20014;-70
2023/09/22 06:14:22;;;;;;;;;;;;;;;21.87;58.81;99753.19;3155319;28;19996;-74
2023/09/22 06:15:55;;;;;;;;;;;;;;;21.87;58.79;99754.03;3158555;28;20026;-67
2023/09/22 06:17:25;;;;;;;;;;;;;;;21.88;58.77;99758.34;3158452;28;20330;-67
2023/09/22 06:18:57;;;;;;;;;;;;;;;21.92;58.36;99754.44;3158454;28;19928;-76
2023/09/22 06:20:28;;;;;;;;;;;;;;;22.00;58.20;99762.50;3158730;28;19931;-70
2023/09/22 06:22:00;;;;;;;;;;;;;;;22.13;58.37;99759.53;3158029;28;19999;-71
2023/09/22 06:23:31;;;;;;;;;;;;;;;22.25;57.90;99757.56;3149306;28;20303;-70
2023/09/22 06:25:04;;;;;;;;;;;;;;;22.32;57.47;99752.53;3158409;28;19935;-69
2023/09/22 06:26:36;;;;;;;;;;;;;;;22.38;57.38;99757.25;3158703;28;19978;-70
2023/09/22 06:28:08;;;;;;;;;;;;;;;22.48;57.69;99756.22;3158809;28;19924;-71
2023/09/22 06:29:39;;;;;;;;;;;;;;;22.65;57.50;99753.75;3157928;28;20355;-72
2023/09/22 06:31:11;;;;;;;;;;;;;;;22.82;57.17;99755.63;3157607;28;19931;-74
2023/09/22 06:32:42;;;;;;;;;;;;;;;22.97;57.00;99760.44;3158686;28;19924;-69
2023/09/22 06:34:13;;;;;;;;;;;;;;;23.17;56.60;99760.16;3158390;28;19984;-70
2023/09/22 06:35:45;;;;;;;;;;;;;;;23.37;56.62;99758.19;3158073;28;20381;-69
2023/09/22 06:37:16;;;;;;;;;;;;;;;23.53;56.27;99765.47;3158390;28;19928;-71
2023/09/22 06:38:48;;;;;;;;;;;;;;;23.73;55.70;99762.69;3158250;28;19947;-75
2023/09/22 06:40:18;;;;;;;;;;;;;;;23.99;55.69;99760.03;3158454;28;19924;-77
2023/09/22 06:41:50;;;;;;;;;;;;;;;24.23;55.05;99762.81;3158371;28;19935;-77
2023/09/22 06:43:23;;;;;;;;;;;;;;;24.48;54.11;99765.63;3157561;28;19924;-74
2023/09/22 06:44:57;;;;;;;;;;;;;;;24.59;53.97;99761.88;3158616;28;20163;-73
2023/09/22 06:46:29;;;;;;;;;;;;;;;24.75;53.49;99768.06;3148795;28;20011;-76
2023/09/22 06:47:59;;;;;;;;;;;;;;;24.91;52.95;99767.28;3157867;28;20266;-74
2023/09/22 06:49:32;;;;;;;;;;;;;;;25.19;53.18;99767.03;3158277;28;19931;-74
2023/09/22 06:51:02;;;;;;;;;;;;;;;25.50;52.19;99769.09;3158612;28;19959;-69
2023/09/22 06:52:34;;;;;;;;;;;;;;;25.79;51.50;99776.56;3149514;28;20011;-76
2023/09/22 06:54:05;;;;;;;;;;;;;;;26.03;51.01;99778.38;3158230;28;19928;-72
2023/09/22 06:55:36;;;;;;;;;;;;;;;26.20;49.97;99771.19;3153280;28;19955;-68
2023/09/22 06:57:07;;;;;;;;;;;;;;;26.40;49.34;99768.97;3151417;28;19985;-74
2023/09/22 06:58:41;;;;;;;;;;;;;;;26.47;49.10;99768.09;3149548;28;19928;-73
2023/09/22 07:00:18;;;;;;;;;;;;;;;26.70;48.88;99770.03;3153438;28;20010;-77
2023/09/22 07:01:49;;;;;;;;;;;;;;;26.84;48.52;99768.47;3155128;28;19951;-73
2023/09/22 07:03:21;;;;;;;;;;;;;;;27.04;48.35;99772.38;3158151;28;20397;-83
2023/09/22 07:04:52;;;;;;;;;;;;;;;27.34;48.41;99777.88;3154948;28;20383;-73
2023/09/22 07:06:24;;;;;;;;;;;;;;;27.54;47.53;99780.88;3152852;28;20014;-71
2023/09/22 07:07:55;;;;;;;;;;;;;;;27.59;46.55;99773.16;3155051;28;19935;-72
2023/09/22 07:09:26;;;;;;;;;;;;;;;27.31;45.56;99775.56;3158040;28;19928;-71
2023/09/22 07:11:01;;;;;;;;;;;;;;;26.98;45.76;99781.91;3148456;28;19928;-75
2023/09/22 07:12:31;;;;;;;;;;;;;;;26.96;46.13;99781.25;3158420;28;19924;-72
2023/09/22 07:14:04;;;;;;;;;;;;;;;27.19;46.01;99775.97;3157801;28;19928;-72
2023/09/22 07:15:37;;;;;;;;;;;;;;;27.57;46.23;99785.91;3157544;28;19928;-74
2023/09/22 07:17:08;;;;;;;;;;;;;;;27.96;45.55;99782.22;3148077;28;19954;-66
2023/09/22 07:18:40;;;;;;;;;;;;;;;28.37;45.33;99782.63;3154407;28;19930;-66
2023/09/22 07:20:12;;;;;;;;;;;;;;;28.82;44.77;99778.06;3158376;28;20465;-64
2023/09/22 07:21:43;;;;;;;;;;;;;;;29.26;44.07;99774.47;3157474;28;20294;-67
2023/09/22 07:23:14;;;;;;;;;;;;;;;29.66;43.17;99770.31;3157894;28;19928;-65
2023/09/22 07:24:46;;;;;;;;;;;;;;;30.00;42.95;99776.78;3157419;28;19927;-66
2023/09/22 07:26:16;;;;;;;;;;;;;;;30.39;42.51;99780.75;3150368;28;19987;-65
2023/09/22 07:27:48;;;;;;;;;;;;;;;30.67;41.99;99774.47;3157642;28;19939;-68
2023/09/22 07:29:20;;;;;;;;;;;;;;;30.74;40.66;99773.47;3157790;28;20389;-71
2023/09/22 07:30:52;;;;;;;;;;;;;;;30.40;40.32;99782.41;3157277;28;19924;-69
2023/09/22 07:32:23;;;;;;;;;;;;;;;30.06;40.43;99783.22;3157792;28;20027;-67
2023/09/22 07:33:54;;;;;;;;;;;;;;;29.88;40.91;99783.72;3157322;28;19973;-67
2023/09/22 07:35:26;;;;;;;;;;;;;;;30.17;40.67;99782.63;3157857;28;19936;-67
2023/09/22 07:36:56;;;;;;;;;;;;;;;30.45;40.53;99784.50;3157941;28;20023;-68
2023/09/22 07:38:29;;;;;;;;;;;;;;;30.54;40.23;99778.75;3157841;28;20407;-67
2023/09/22 07:40:00;;;;;;;;;;;;;;;30.76;40.21;99776.81;3157719;28;20355;-66
2023/09/22 07:41:32;;;;;;;;;;;;;;;31.22;39.96;99781.50;3155962;28;19964;-65
2023/09/22 07:43:35;;;;;;;;;;;;;;;31.68;39.47;99786.13;3154101;28;20367;-65
2023/09/22 07:45:09;;;;;;;;;;;;;;;32.02;37.77;99778.06;3114936;28;19991;-65
2023/09/22 07:46:41;;;;;;;;;;;;;;;32.03;37.97;99782.38;3113533;28;19932;-65
2023/09/22 07:48:12;;;;;;;;;;;;;;;32.28;37.77;99782.56;3157578;28;19943;-65
2023/09/22 07:49:43;;;;;;;;;;;;;;;32.35;36.82;99784.19;3157762;28;20480;-65
2023/09/22 07:51:14;;;;;;;;;;;;;;;32.34;37.17;99779.03;3156579;28;19935;-65
2023/09/22 07:52:45;;;;;;;;;;;;;;;32.41;36.49;99780.63;3157203;28;20079;-66
2023/09/22 07:54:17;;;;;;;;;;;;;;;32.50;36.82;99781.25;3158045;28;19928;-65
2023/09/22 07:55:48;;;;;;;;;;;;;;;32.80;36.49;99778.03;3156589;28;20377;-65
2023/09/22 07:57:19;;;;;;;;;;;;;;;32.92;36.06;99772.78;3157195;28;19930;-66
2023/09/22 07:58:50;;;;;;;;;;;;;;;32.92;35.41;99775.47;3157252;28;20342;-65